Data for 01/13/2015

Time Sea-Level Adjusted Pressure Absolute Pressure Temperature Relative Humidity Dew Point   
(mb) (inHg) (mb) (inHg) (C) (F) (%) (C) (F)
00:05 1024 30.24 853 25.19 -2.1 28.2 86 -4.2 24.5
00:10 1024 30.24 853 25.19 -2.1 28.3 86 -4.1 24.7
00:15 1024 30.24 853 25.19 -1.9 28.5 85 -4.1 24.6
00:20 1024 30.24 853 25.19 -1.9 28.5 86 -4.1 24.7
00:25 1024 30.24 853 25.19 -2 28.4 86 -4.1 24.6
00:30 1024 30.24 853 25.19 -2.1 28.3 86 -4.1 24.7
00:35 1024 30.24 853 25.19 -2 28.3 87 -4 24.9
00:40 1024 30.24 853 25.19 -1.9 28.6 86 -3.9 25
00:45 1024 30.24 853 25.19 -1.8 28.7 86 -3.8 25.1
00:50 1024 30.24 853 25.19 -1.7 28.9 86 -3.8 25.1
00:55 1024 30.24 853 25.19 -1.8 28.8 86 -3.9 25.1
01:00 1024 30.24 853 25.19 -1.8 28.7 86 -3.8 25.1
01:05 1024 30.24 853 25.19 -1.9 28.5 86 -3.9 24.9
01:10 1024 30.24 853 25.19 -2 28.4 87 -3.9 25
01:15 1024 30.24 853 25.19 -2 28.3 87 -3.9 25
01:20 1024 30.24 853 25.19 -2 28.3 87 -3.9 25
01:25 1024 30.24 853 25.19 -2.1 28.2 88 -3.9 25
01:30 1024 30.24 853 25.19 -2.1 28.1 88 -3.9 24.9
01:35 1024 30.24 853 25.19 -2.2 28 88 -4 24.9
01:40 1024 30.24 853 25.19 -2.3 27.9 88 -3.9 24.9
01:45 1024 30.24 853 25.19 -2.3 28 88 -3.9 24.9
01:50 1024 30.24 853 25.19 -2.2 28 88 -4 24.8
01:55 1024 30.24 853 25.19 -2.2 28.1 88 -4 24.8
02:00 1024 30.24 853 25.19 -2.2 28.1 87 -4 24.8
02:05 1024 30.24 853 25.19 -2.2 28.1 87 -4.1 24.7
02:10 1024 30.24 853 25.19 -2.2 28 88 -4 24.8
02:15 1024 30.24 853 25.19 -2.2 28 88 -3.9 24.9
02:20 1024 30.24 853 25.19 -2.3 27.9 89 -3.9 25
02:25 1024 30.24 853 25.19 -2.2 28 89 -3.9 25
02:30 1024 30.24 853 25.19 -2.2 28 89 -3.9 25.1
02:35 1024 30.24 853 25.19 -2.2 28.1 88 -3.8 25.1
02:40 1024 30.24 853 25.19 -2.1 28.3 88 -3.8 25.2
02:45 1024 30.24 853 25.19 -2 28.5 88 -3.7 25.3
02:50 1024 30.24 853 25.19 -1.9 28.6 88 -3.6 25.5
02:55 1024 30.24 853 25.19 -1.8 28.8 88 -3.5 25.6
03:00 1024 30.24 853 25.19 -1.7 28.9 88 -3.5 25.7
03:05 1024 30.24 853 25.19 -1.7 28.9 88 -3.5 25.7
03:10 1024 30.24 853 25.19 -1.7 29 88 -3.4 25.8
03:15 1024 30.24 853 25.19 -1.5 29.2 87 -3.4 26
03:20 1024 30.24 853 25.19 -1.5 29.3 87 -3.4 25.9
03:25 1024 30.24 853 25.19 -1.5 29.4 87 -3.4 26
03:30 1024 30.24 853 25.19 -1.4 29.5 87 -3.4 26
03:35 1024 30.24 853 25.19 -1.3 29.7 86 -3.3 26
03:40 1024 30.24 853 25.19 -1.2 29.8 86 -3.3 26
03:45 1024 30.24 853 25.19 -1.1 29.9 85 -3.3 26
03:50 1024 30.24 853 25.19 -1.1 30.1 85 -3.3 26
03:55 1024 30.24 853 25.19 -1 30.2 85 -3.2 26.2
04:00 1024 30.24 853 25.19 -0.9 30.3 84 -3.2 26.2
04:05 1024 30.24 853 25.19 -0.9 30.4 84 -3.2 26.2
04:10 1024 30.24 853 25.19 -0.9 30.4 84 -3.3 26.1
04:15 1024 30.24 853 25.19 -0.9 30.4 84 -3.3 26.1
04:20 1024 30.24 853 25.19 -0.9 30.4 84 -3.3 26.1
04:25 1024 30.24 853 25.19 -0.9 30.4 83 -3.4 26
04:30 1024 30.24 853 25.19 -0.9 30.4 83 -3.4 25.9
04:35 1024 30.24 853 25.19 -1 30.3 83 -3.4 25.8
04:40 1024 30.24 853 25.19 -1 30.2 84 -3.5 25.8
04:45 1024 30.24 853 25.19 -1.1 30.1 80 -4.1 24.7
04:50 1024 30.24 853 25.19 -1.1 30 77 -4.6 23.7
04:55 1024 30.24 853 25.19 -1.1 30 77 -4.6 23.7
05:00 1024 30.24 853 25.19 -1.2 29.9 77 -4.7 23.6
05:05 1024 30.24 854 25.22 -1.2 29.8 80 -4.3 24.3
05:10 1024 30.24 854 25.22 -1.3 29.6 82 -4.1 24.6
05:15 1024 30.24 854 25.22 -1.4 29.4 82 -4.1 24.6
05:20 1024 30.24 854 25.22 -1.5 29.4 81 -4.3 24.3
05:25 1024 30.24 854 25.22 -1.5 29.3 80 -4.5 24
05:30 1024 30.24 854 25.22 -1.4 29.4 79 -4.7 23.6
05:35 1024 30.24 854 25.22 -1.3 29.6 79 -4.5 23.9
05:40 1024 30.24 854 25.22 -1.3 29.7 79 -4.4 24
05:45 1024 30.24 854 25.22 -1.3 29.7 79 -4.5 23.9
05:50 1025 30.27 854 25.22 -1.3 29.7 77 -4.8 23.4
05:55 1025 30.27 854 25.22 -1.2 29.8 76 -4.9 23.2
06:00 1025 30.27 854 25.22 -1.2 29.8 75 -5.2 22.7
06:05 1025 30.27 854 25.22 -1.2 29.9 74 -5.2 22.6
06:10 1025 30.27 854 25.22 -1.2 29.9 74 -5.3 22.5
06:15 1025 30.27 854 25.22 -1.3 29.7 74 -5.3 22.4
06:20 1025 30.27 854 25.22 -1.3 29.6 74 -5.4 22.2
06:25 1025 30.27 854 25.22 -1.4 29.6 75 -5.2 22.6
06:30 1025 30.27 854 25.22 -1.5 29.4 77 -5 23
06:35 1025 30.27 854 25.22 -1.5 29.3 80 -4.5 23.8
06:40 1025 30.27 854 25.22 -1.7 29 81 -4.6 23.8
06:45 1025 30.27 854 25.22 -1.7 29 81 -4.4 24
06:50 1025 30.27 854 25.22 -1.7 29 83 -4.1 24.6
06:55 1025 30.27 854 25.22 -1.7 29 83 -4.2 24.4
07:00 1025 30.27 854 25.22 -1.7 29 82 -4.4 24.1
07:05 1025 30.27 854 25.22 -1.7 28.9 82 -4.5 24
07:10 1025 30.27 854 25.22 -2.1 28.2 81 -4.9 23.1
07:15 1025 30.27 854 25.22 -2.1 28.1 80 -5.2 22.7
07:20 1025 30.27 854 25.22 -1.9 28.6 78 -5.1 22.7
07:25 1025 30.27 854 25.22 -1.8 28.8 78 -5.1 22.9
07:30 1025 30.27 854 25.22 -1.8 28.8 77 -5.3 22.4
07:35 1025 30.27 854 25.22 -1.7 28.9 76 -5.3 22.4
07:40 1025 30.27 854 25.22 -1.7 28.9 76 -5.4 22.3
07:45 1025 30.27 854 25.22 -1.7 28.9 75 -5.6 21.9
07:50 1025 30.27 854 25.22 -1.8 28.8 74 -5.7 21.7
07:55 1025 30.27 855 25.25 -1.9 28.6 74 -6 21.2
08:00 1025 30.27 855 25.25 -1.8 28.7 73 -6 21.2
08:05 1025 30.27 855 25.25 -1.9 28.7 72 -6.2 20.8
08:10 1025 30.27 855 25.25 -2 28.4 72 -6.4 20.5
08:15 1026 30.3 855 25.25 -2 28.4 71 -6.6 20.2
08:20 1026 30.3 855 25.25 -2.2 28 72 -6.7 19.9
08:25 1026 30.3 855 25.25 -2.4 27.7 70 -7.2 19
08:30 1026 30.3 855 25.25 -2.5 27.4 69 -7.5 18.5
08:35 1026 30.3 855 25.25 -2.5 27.5 67 -7.8 18
08:40 1026 30.3 855 25.25 -2.5 27.5 68 -7.6 18.3
08:45 1026 30.3 855 25.25 -2.6 27.3 68 -7.7 18.2
08:50 1026 30.3 855 25.25 -2.6 27.3 70 -7.3 18.8
08:55 1026 30.3 855 25.25 -2.7 27.2 69 -7.6 18.3
09:00 1026 30.3 855 25.25 -2.7 27.1 68 -7.8 18
09:05 1026 30.3 855 25.25 -2.8 26.9 68 -8 17.6
09:10 1026 30.3 855 25.25 -2.9 26.8 67 -8.3 17.1
09:15 1026 30.3 855 25.25 -2.9 26.7 66 -8.5 16.7
09:20 1026 30.3 855 25.25 -2.9 26.8 66 -8.3 17
09:25 1026 30.3 855 25.25 -2.5 27.4 64 -8.4 16.8
09:30 1026 30.3 855 25.25 -2.2 28 63 -8.3 17.1
09:35 1026 30.3 856 25.28 -2.3 27.9 65 -8.1 17.5
09:40 1026 30.3 856 25.28 -2.2 28.1 65 -7.9 17.7
09:45 1026 30.3 856 25.28 -2.1 28.3 62 -8.3 17
09:50 1026 30.3 856 25.28 -2.3 27.9 63 -8.4 16.8
09:55 1026 30.3 856 25.28 -2.4 27.6 65 -8.2 17.3
10:00 1026 30.3 856 25.28 -2.4 27.7 64 -8.4 17
10:05 1026 30.3 856 25.28 -2.4 27.8 64 -8.2 17.2
10:10 1026 30.3 856 25.28 -2.2 28 63 -8.3 17.1
10:15 1026 30.3 856 25.28 -2.2 28 63 -8.3 17.1
10:20 1026 30.3 856 25.28 -2.5 27.4 64 -8.4 16.9
10:25 1026 30.3 856 25.28 -2.7 27.1 65 -8.4 16.9
10:30 1026 30.3 856 25.28 -2.8 27 66 -8.4 17
10:35 1027 30.33 856 25.28 -2.5 27.5 64 -8.4 16.8
10:40 1027 30.33 856 25.28 -2.1 28.3 62 -8.4 16.9
10:45 1027 30.33 856 25.28 -1.9 28.6 62 -8.3 17.1
10:50 1027 30.33 856 25.28 -1.6 29.1 60 -8.4 16.9
10:55 1027 30.33 856 25.28 -1.4 29.4 61 -8.1 17.4
11:00 1027 30.33 856 25.28 -1.3 29.6 61 -8 17.6
11:05 1027 30.33 856 25.28 -1.3 29.7 60 -8.1 17.4
11:10 1027 30.33 856 25.28 -1.3 29.6 61 -8 17.7
11:15 1027 30.33 857 25.31 -1.2 29.8 61 -7.9 17.8
11:20 1027 30.33 857 25.31 -1.3 29.7 59 -8.2 17.2
11:25 1028 30.36 857 25.31 -1.3 29.7 60 -8.1 17.4
11:30 1028 30.36 857 25.31 -1.2 29.9 60 -8.1 17.5
11:35 1028 30.36 857 25.31 -1.2 29.9 60 -7.9 17.8
11:40 1028 30.36 857 25.31 -1 30.1 61 -7.7 18.1
11:45 1028 30.36 857 25.31 -0.6 30.9 58 -7.9 17.8
11:50 1028 30.36 857 25.31 -0.4 31.2 60 -7.3 18.9
11:55 1028 30.36 857 25.31 -0.5 31.1 59 -7.6 18.3
12:00 1028 30.36 857 25.31 -0.7 30.8 61 -7.3 18.8
12:05 1028 30.36 857 25.31 -0.5 31.1 59 -7.4 18.6
12:10 1028 30.36 857 25.31 -0.4 31.2 60 -7.2 19
12:15 1028 30.36 857 25.31 -0.6 31 60 -7.4 18.6
12:20 1028 30.36 857 25.31 -0.6 30.9 60 -7.5 18.4
12:25 1028 30.36 857 25.31 -0.6 30.9 60 -7.5 18.4
12:30 1028 30.36 857 25.31 -0.5 31.1 60 -7.4 18.7
12:35 1027 30.33 857 25.31 -0.3 31.4 57 -7.8 18
12:40 1027 30.33 856 25.28 -0.3 31.4 59 -7.4 18.7
12:45 1027 30.33 856 25.28 0.4 32.7 54 -7.8 18
12:50 1027 30.33 856 25.28 1.1 33.9 53 -7.4 18.6
12:55 1027 30.33 856 25.28 1.2 34.1 53 -7.5 18.6
13:00 1027 30.33 856 25.28 1.3 34.4 51 -7.7 18.1
13:05 1027 30.33 856 25.28 1.2 34.1 52 -7.6 18.3
13:10 1027 30.33 856 25.28 1.5 34.7 52 -7.4 18.7
13:15 1027 30.33 856 25.28 1.7 35.1 50 -7.6 18.3
13:20 1027 30.33 856 25.28 1.5 34.8 50 -7.7 18.2
13:25 1027 30.33 856 25.28 1.1 34.1 52 -7.5 18.4
13:30 1027 30.33 856 25.28 0.6 33.1 53 -8 17.7
13:35 1027 30.33 856 25.28 0.6 33.2 53 -7.9 17.7
13:40 1027 30.33 856 25.28 0.8 33.5 51 -8.2 17.2
13:45 1027 30.33 856 25.28 0.6 33.1 52 -8.1 17.4
13:50 1027 30.33 856 25.28 0.7 33.2 51 -8.3 17
13:55 1027 30.33 856 25.28 1 33.8 49 -8.6 16.5
14:00 1027 30.33 856 25.28 1.4 34.6 50 -7.9 17.7
14:05 1027 30.33 856 25.28 1.6 35 48 -8.2 17.2
14:10 1027 30.33 856 25.28 1.5 34.7 49 -8.1 17.4
14:15 1027 30.33 856 25.28 1 33.7 52 -7.7 18.1
14:20 1027 30.33 856 25.28 0.4 32.8 53 -8.1 17.4
14:25 1027 30.33 856 25.28 0.4 32.8 53 -8 17.5
14:30 1027 30.33 856 25.28 0.3 32.5 56 -7.5 18.5
14:35 1027 30.33 856 25.28 0 32 55 -8 17.7
14:40 1026 30.3 856 25.28 0.4 32.6 54 -8 17.6
14:45 1026 30.3 856 25.28 1 33.8 51 -8 17.7
14:50 1026 30.3 856 25.28 1.5 34.7 50 -7.9 17.7
14:55 1026 30.3 856 25.28 1.5 34.7 49 -8.1 17.4
15:00 1026 30.3 856 25.28 1.4 34.6 49 -8.2 17.2
15:05 1026 30.3 856 25.28 1.8 35.2 48 -8.2 17.2
15:10 1026 30.3 856 25.28 2.1 35.8 46 -8.2 17.2
15:15 1026 30.3 856 25.28 2.3 36.1 46 -8.2 17.3
15:20 1027 30.33 856 25.28 2.3 36.1 47 -7.9 17.8
15:25 1027 30.33 856 25.28 2.4 36.3 46 -8 17.6
15:30 1027 30.33 856 25.28 2.2 36 47 -8 17.5
15:35 1027 30.33 856 25.28 2 35.7 47 -8.2 17.2
15:40 1027 30.33 856 25.28 2 35.6 47 -8.3 17.1
15:45 1027 30.33 856 25.28 1.9 35.5 46 -8.6 16.5
15:50 1027 30.33 856 25.28 2.1 35.7 45 -8.6 16.4
15:55 1027 30.33 856 25.28 2.2 36 46 -8.4 16.9
16:00 1027 30.33 856 25.28 2.3 36.1 44 -8.7 16.3
16:05 1027 30.33 856 25.28 2 35.6 46 -8.3 17.1
16:10 1027 30.33 856 25.28 2 35.7 46 -8.4 17
16:15 1027 30.33 856 25.28 2 35.7 46 -8.5 16.7
16:20 1027 30.33 856 25.28 1.8 35.2 46 -8.5 16.7
16:25 1026 30.3 856 25.28 2 35.6 46 -8.6 16.6
16:30 1026 30.3 856 25.28 1.9 35.5 46 -8.4 16.9
16:35 1026 30.3 856 25.28 1.7 35 48 -8.1 17.3
16:40 1026 30.3 855 25.25 1.6 34.9 48 -8.2 17.2
16:45 1026 30.3 855 25.25 1.3 34.4 48 -8.5 16.8
16:50 1026 30.3 855 25.25 0.9 33.7 50 -8.5 16.7
16:55 1026 30.3 855 25.25 1 33.8 49 -8.5 16.7
17:00 1026 30.3 855 25.25 1 33.9 49 -8.6 16.5
17:05 1026 30.3 855 25.25 1.1 34 48 -8.6 16.5
17:10 1026 30.3 855 25.25 1 33.9 49 -8.5 16.7
17:15 1026 30.3 855 25.25 1.1 34 48 -8.8 16.2
17:20 1026 30.3 855 25.25 0.9 33.6 53 -7.7 18.2
17:25 1026 30.3 855 25.25 0.9 33.5 51 -8.3 17.1
17:30 1026 30.3 855 25.25 0.5 32.9 51 -8.4 16.9
17:35 1026 30.3 855 25.25 -0.3 31.5 53 -8.7 16.3
17:40 1026 30.3 855 25.25 -0.4 31.2 53 -8.8 16.2
17:45 1026 30.3 855 25.25 -0.3 31.4 53 -8.7 16.4
17:50 1026 30.3 855 25.25 -0.2 31.7 53 -8.7 16.3
17:55 1026 30.3 855 25.25 -0.3 31.4 54 -8.4 16.8
18:00 1026 30.3 855 25.25 -0.7 30.8 56 -8.4 16.8
18:05 1026 30.3 855 25.25 -1.2 29.9 57 -8.6 16.6
18:10 1026 30.3 855 25.25 -1.9 28.5 62 -8.3 17
18:15 1026 30.3 855 25.25 -2.6 27.4 66 -8.2 17.3
18:20 1026 30.3 855 25.25 -3.1 26.5 67 -8.3 17.1
18:25 1026 30.3 855 25.25 -3.2 26.3 70 -8 17.6
18:30 1026 30.3 855 25.25 -3.4 25.8 71 -8 17.6
18:35 1026 30.3 855 25.25 -3.6 25.6 71 -8.2 17.3
18:40 1026 30.3 855 25.25 -3.7 25.3 70 -8.4 17
18:45 1026 30.3 856 25.28 -4.2 24.5 73 -8.4 16.9
18:50 1026 30.3 856 25.28 -4.5 23.9 74 -8.5 16.8
18:55 1026 30.3 856 25.28 -4.5 23.9 73 -8.6 16.5
19:00 1026 30.3 856 25.28 -4.3 24.2 73 -8.4 16.9
19:05 1026 30.3 856 25.28 -4.4 24.1 74 -8.4 16.8
19:10 1026 30.3 856 25.28 -4.5 23.8 73 -8.6 16.5
19:15 1026 30.3 856 25.28 -4.6 23.6 73 -8.7 16.3
19:20 1026 30.3 856 25.28 -4.6 23.8 73 -8.7 16.3
19:25 1026 30.3 856 25.28 -4.6 23.8 73 -8.8 16.2
19:30 1026 30.3 856 25.28 -4.7 23.6 73 -8.9 16
19:35 1026 30.3 856 25.28 -4.8 23.4 73 -8.9 16.1
19:40 1026 30.3 856 25.28 -4.7 23.6 74 -8.7 16.4
19:45 1026 30.3 856 25.28 -4.6 23.8 73 -8.7 16.4
19:50 1026 30.3 856 25.28 -4.7 23.5 74 -8.7 16.3
19:55 1026 30.3 856 25.28 -4.7 23.5 73 -8.8 16.1
20:00 1026 30.3 856 25.28 -4.5 23.9 73 -8.5 16.6
20:05 1026 30.3 856 25.28 -4.6 23.8 74 -8.6 16.6
20:10 1026 30.3 856 25.28 -4.5 23.8 73 -8.7 16.3
20:15 1026 30.3 856 25.28 -4.6 23.7 73 -8.8 16.2
20:20 1026 30.3 856 25.28 -4.6 23.8 74 -8.6 16.6
20:25 1026 30.3 856 25.28 -4.6 23.7 73 -8.8 16.2
20:30 1026 30.3 856 25.28 -4.6 23.8 72 -8.9 16
20:35 1026 30.3 856 25.28 -4.5 23.9 72 -8.9 16.1
20:40 1026 30.3 856 25.28 -4.5 23.9 71 -9 15.8
20:45 1026 30.3 856 25.28 -4.4 24 71 -8.9 15.9
20:50 1026 30.3 856 25.28 -4.5 24 71 -9 15.8
20:55 1026 30.3 856 25.28 -4.4 24.1 71 -9 15.9
21:00 1026 30.3 855 25.25 -4.4 24.1 71 -8.9 15.9
21:05 1026 30.3 855 25.25 -4.5 23.9 69 -9.2 15.4
21:10 1026 30.3 855 25.25 -4.6 23.8 69 -9.3 15.2
21:15 1026 30.3 855 25.25 -4.5 23.9 69 -9.3 15.3
21:20 1026 30.3 855 25.25 -4.5 23.9 69 -9.3 15.3
21:25 1026 30.3 855 25.25 -4.4 24.1 69 -9.3 15.3
21:30 1026 30.3 855 25.25 -4.3 24.3 68 -9.3 15.3
21:35 1026 30.3 855 25.25 -4.3 24.2 68 -9.3 15.2
21:40 1026 30.3 855 25.25 -4.5 24 69 -9.3 15.2
21:45 1026 30.3 855 25.25 -4.6 23.8 69 -9.4 15.1
21:50 1026 30.3 855 25.25 -4.5 24 68 -9.4 15
21:55 1026 30.3 855 25.25 -4.3 24.3 67 -9.4 15
22:00 1026 30.3 855 25.25 -4.2 24.4 68 -9.3 15.2
22:05 1026 30.3 855 25.25 -4.3 24.3 68 -9.4 15.1
22:10 1026 30.3 855 25.25 -4.4 24 68 -9.5 15
22:15 1026 30.3 855 25.25 -4.6 23.8 68 -9.5 14.8
22:20 1026 30.3 855 25.25 -4.6 23.7 68 -9.6 14.7
22:25 1026 30.3 855 25.25 -4.6 23.7 68 -9.6 14.8
22:30 1026 30.3 855 25.25 -4.7 23.5 69 -9.5 14.8
22:35 1026 30.3 855 25.25 -5.1 22.9 70 -9.6 14.7
22:40 1026 30.3 855 25.25 -5.2 22.6 71 -9.7 14.5
22:45 1026 30.3 855 25.25 -5.5 22.1 72 -9.8 14.3
22:50 1026 30.3 856 25.28 -5.8 21.6 72 -10 14
22:55 1026 30.3 856 25.28 -5.8 21.5 73 -10 14
23:00 1026 30.3 856 25.28 -5.8 21.6 72 -10 14
23:05 1026 30.3 856 25.28 -5.8 21.6 72 -10 14
23:10 1026 30.3 855 25.25 -5.8 21.5 73 -10 14
23:15 1026 30.3 855 25.25 -5.9 21.5 73 -10 14
23:20 1026 30.3 855 25.25 -5.9 21.4 73 -10 14.1
23:25 1026 30.3 855 25.25 -6 21.2 73 -10 13.9
23:30 1026 30.3 855 25.25 -6.1 21.1 73 -10.1 13.8
23:35 1026 30.3 855 25.25 -6 21.3 72 -10.2 13.6
23:40 1026 30.3 855 25.25 -6 21.3 73 -10.1 13.8
23:45 1026 30.3 855 25.25 -6.1 21.1 73 -10.2 13.7
23:50 1026 30.3 855 25.25 -6 21.2 73 -10.1 13.8
23:55 1026 30.3 855 25.25 -6.1 21.1 74 -10 13.9
24:00 1026 30.3 855 25.25 -6.1 21.1 74 -9.9 14.1